Time;durP1;ratioP1;P1;durP2;ratioP2;P2;SDS_P1;SDS_P2;PMS_P1;PMS_P2;Temp;Humidity;BMP_temperature;BMP_pressure;BME280_temperature;BME280_humidity;BME280_pressure;Samples;Min_cycle;Max_cycle;Signal;HPM_P1;HPM_P2
2023/02/05 00:01:27;;;;;;;66.55;11.95;;;;;;;;;;5075439;28;20209;-69
2023/02/05 00:03:54;;;;;;;69.47;11.75;;;;;;;;;;5074734;28;20226;-68
2023/02/05 00:06:23;;;;;;;71.20;11.65;;;;;;;;;;5075215;28;20201;-69
2023/02/05 00:08:50;;;;;;;68.55;11.85;;;;;;;;;;5074526;28;20201;-69
2023/02/05 00:11:17;;;;;;;71.80;11.95;;;;;;;;;;5074863;28;20212;-67
2023/02/05 00:13:44;;;;;;;72.10;11.73;;;;;;;;;;5074576;28;20229;-68
2023/02/05 00:16:12;;;;;;;72.97;12.35;;;;;;;;;;5074586;28;20205;-68
2023/02/05 00:18:39;;;;;;;72.28;12.75;;;;;;;;;;5074338;28;20225;-68
2023/02/05 00:21:07;;;;;;;67.22;11.43;;;;;;;;;;5074665;28;20677;-69
2023/02/05 00:23:35;;;;;;;71.05;10.90;;;;;;;;;;5074355;28;20239;-68
2023/02/05 00:26:03;;;;;;;69.97;11.90;;;;;;;;;;5074373;28;20215;-69
2023/02/05 00:28:32;;;;;;;70.70;11.65;;;;;;;;;;5074149;28;20205;-68
2023/02/05 00:30:59;;;;;;;68.80;11.68;;;;;;;;;;5074463;28;20213;-68
2023/02/05 00:33:26;;;;;;;67.10;10.60;;;;;;;;;;5074365;28;20583;-69
2023/02/05 00:35:53;;;;;;;74.28;10.93;;;;;;;;;;5074255;28;20216;-69
2023/02/05 00:38:20;;;;;;;69.25;11.77;;;;;;;;;;5073895;28;20316;-69
2023/02/05 00:40:48;;;;;;;68.20;11.50;;;;;;;;;;5073943;28;20580;-69
2023/02/05 00:43:15;;;;;;;69.30;10.57;;;;;;;;;;5074015;28;20225;-68
2023/02/05 00:45:42;;;;;;;69.63;12.32;;;;;;;;;;5074631;28;20212;-68
2023/02/05 00:48:10;;;;;;;66.93;11.10;;;;;;;;;;5074095;28;20665;-69
2023/02/05 00:50:37;;;;;;;68.82;11.60;;;;;;;;;;5073811;28;20212;-68
2023/02/05 00:53:04;;;;;;;67.20;11.13;;;;;;;;;;5073924;28;20205;-69
2023/02/05 00:55:31;;;;;;;66.47;10.48;;;;;;;;;;5073814;28;20665;-69
2023/02/05 00:58:00;;;;;;;69.05;11.63;;;;;;;;;;5073629;28;20240;-69
2023/02/05 01:00:27;;;;;;;69.30;11.32;;;;;;;;;;5073421;28;20209;-68
2023/02/05 01:02:54;;;;;;;70.32;11.52;;;;;;;;;;5073596;28;20235;-69
2023/02/05 01:05:21;;;;;;;66.70;10.70;;;;;;;;;;5073765;28;20235;-68
2023/02/05 01:07:48;;;;;;;70.30;12.10;;;;;;;;;;5073587;28;20201;-68
2023/02/05 01:10:16;;;;;;;69.25;12.35;;;;;;;;;;5073122;28;20205;-69
2023/02/05 01:12:43;;;;;;;69.07;11.55;;;;;;;;;;5073819;28;20220;-68
2023/02/05 01:15:13;;;;;;;67.72;12.05;;;;;;;;;;5073535;28;20747;-68
2023/02/05 01:17:40;;;;;;;65.35;9.88;;;;;;;;;;5073465;28;20221;-68
2023/02/05 01:20:08;;;;;;;67.35;11.25;;;;;;;;;;5073129;28;20209;-68
2023/02/05 01:22:35;;;;;;;69.70;11.45;;;;;;;;;;5073380;28;20295;-69
2023/02/05 01:25:03;;;;;;;67.15;10.10;;;;;;;;;;5073102;28;20744;-68
2023/02/05 01:27:30;;;;;;;65.47;10.85;;;;;;;;;;5073414;28;20206;-68
2023/02/05 01:29:57;;;;;;;66.43;10.60;;;;;;;;;;5072939;28;20205;-68
2023/02/05 01:32:25;;;;;;;66.75;10.77;;;;;;;;;;5073091;28;20214;-69
2023/02/05 01:34:52;;;;;;;67.65;11.63;;;;;;;;;;5073043;28;20235;-68
2023/02/05 01:37:20;;;;;;;66.88;11.57;;;;;;;;;;5072941;28;20591;-69
2023/02/05 01:39:47;;;;;;;74.10;11.32;;;;;;;;;;5072786;28;20205;-68
2023/02/05 01:42:17;;;;;;;71.90;12.82;;;;;;;;;;5072943;28;20669;-68
2023/02/05 01:44:45;;;;;;;66.60;10.27;;;;;;;;;;5072942;28;20225;-69
2023/02/05 01:47:12;;;;;;;70.30;9.73;;;;;;;;;;5072225;28;20214;-69
2023/02/05 01:49:42;;;;;;;67.22;10.52;;;;;;;;;;5072373;28;20205;-69
2023/02/05 01:52:12;;;;;;;67.40;10.60;;;;;;;;;;5073011;28;20228;-67
2023/02/05 01:54:41;;;;;;;67.90;10.75;;;;;;;;;;5072720;28;20224;-68
2023/02/05 01:57:10;;;;;;;68.65;11.20;;;;;;;;;;5072616;28;20205;-68
2023/02/05 01:59:39;;;;;;;67.45;10.82;;;;;;;;;;5072275;28;20205;-69
2023/02/05 02:02:07;;;;;;;70.53;11.45;;;;;;;;;;5072500;28;20212;-68
2023/02/05 02:04:37;;;;;;;68.00;12.13;;;;;;;;;;5072418;28;20236;-69
2023/02/05 02:07:07;;;;;;;66.85;12.10;;;;;;;;;;5072835;28;20546;-68
2023/02/05 02:09:34;;;;;;;70.40;12.43;;;;;;;;;;5072062;28;20208;-69
2023/02/05 02:12:02;;;;;;;74.97;14.43;;;;;;;;;;5072494;28;20205;-68
2023/02/05 02:14:31;;;;;;;71.40;14.07;;;;;;;;;;5072262;28;20733;-68
2023/02/05 02:16:59;;;;;;;76.35;15.27;;;;;;;;;;5072156;28;20201;-68
2023/02/05 02:19:28;;;;;;;74.45;13.65;;;;;;;;;;5071832;28;20225;-69
2023/02/05 02:22:04;;;;;;;68.43;13.13;;;;;;;;;;5072325;28;20221;-68
2023/02/05 02:24:40;;;;;;;70.40;13.23;;;;;;;;;;5072147;28;20240;-69
2023/02/05 02:27:16;;;;;;;69.35;12.38;;;;;;;;;;5072064;28;20208;-68
2023/02/05 02:29:47;;;;;;;72.90;13.20;;;;;;;;;;5071961;28;20205;-68
2023/02/05 02:32:17;;;;;;;70.93;12.48;;;;;;;;;;5072114;28;20858;-69
2023/02/05 02:34:46;;;;;;;74.22;11.80;;;;;;;;;;5072038;28;20229;-69
2023/02/05 02:37:19;;;;;;;67.75;11.40;;;;;;;;;;5071858;28;20205;-69
2023/02/05 02:39:51;;;;;;;68.78;12.02;;;;;;;;;;5071501;28;20212;-69
2023/02/05 02:42:23;;;;;;;66.85;10.95;;;;;;;;;;5070260;28;20566;-69
2023/02/05 02:44:53;;;;;;;66.60;10.98;;;;;;;;;;5072041;28;20228;-68
2023/02/05 02:47:22;;;;;;;69.05;11.90;;;;;;;;;;5071984;28;20205;-69
2023/02/05 02:49:50;;;;;;;67.00;10.95;;;;;;;;;;5071379;28;20300;-69
2023/02/05 02:52:19;;;;;;;66.78;12.00;;;;;;;;;;5071959;28;20553;-68
2023/02/05 02:54:47;;;;;;;66.57;10.70;;;;;;;;;;5071793;28;20225;-68
2023/02/05 02:57:15;;;;;;;65.47;9.27;;;;;;;;;;5071753;28;20209;-69
2023/02/05 02:59:44;;;;;;;66.25;11.07;;;;;;;;;;5070590;28;20295;-68
2023/02/05 03:02:14;;;;;;;66.32;9.77;;;;;;;;;;5071754;28;20205;-69
2023/02/05 03:04:43;;;;;;;68.85;10.75;;;;;;;;;;5071888;28;20328;-69
2023/02/05 03:07:12;;;;;;;66.82;9.32;;;;;;;;;;5071769;28;20204;-68
2023/02/05 03:09:43;;;;;;;67.65;10.43;;;;;;;;;;5071214;28;20677;-69
2023/02/05 03:12:10;;;;;;;70.68;10.98;;;;;;;;;;5071506;28;20211;-68
2023/02/05 03:14:38;;;;;;;66.60;10.27;;;;;;;;;;5071358;28;20228;-69
2023/02/05 03:17:05;;;;;;;66.22;9.98;;;;;;;;;;5071510;28;20211;-68
2023/02/05 03:19:33;;;;;;;67.70;10.32;;;;;;;;;;5071297;28;20225;-68
2023/02/05 03:22:03;;;;;;;64.75;9.60;;;;;;;;;;5071538;28;20218;-68
2023/02/05 03:24:31;;;;;;;65.63;9.80;;;;;;;;;;5071287;28;20239;-69
2023/02/05 03:26:58;;;;;;;67.95;10.50;;;;;;;;;;5071473;28;20212;-69
2023/02/05 03:29:27;;;;;;;66.20;10.43;;;;;;;;;;5070960;28;20200;-70
2023/02/05 03:31:57;;;;;;;66.43;8.98;;;;;;;;;;5071351;28;20665;-69
2023/02/05 03:34:31;;;;;;;66.38;9.45;;;;;;;;;;5071469;28;20236;-68
2023/02/05 03:37:07;;;;;;;66.63;9.95;;;;;;;;;;5071569;28;20218;-69
2023/02/05 03:39:41;;;;;;;72.22;10.85;;;;;;;;;;5070952;28;20223;-69
2023/02/05 03:42:13;;;;;;;66.07;10.57;;;;;;;;;;5071490;28;20227;-69
2023/02/05 03:44:49;;;;;;;67.18;9.98;;;;;;;;;;5071336;28;20266;-69
2023/02/05 03:47:21;;;;;;;64.03;9.15;;;;;;;;;;5071429;28;20215;-69
2023/02/05 03:49:52;;;;;;;65.90;10.60;;;;;;;;;;5070952;28;20215;-68
2023/02/05 03:52:23;;;;;;;65.47;10.18;;;;;;;;;;5071179;28;20698;-68
2023/02/05 03:54:52;;;;;;;66.43;10.10;;;;;;;;;;5070993;28;20228;-68
2023/02/05 03:57:22;;;;;;;64.13;9.10;;;;;;;;;;5071310;28;20206;-68
2023/02/05 03:59:49;;;;;;;67.25;9.93;;;;;;;;;;5070720;28;20228;-68
2023/02/05 04:02:17;;;;;;;68.53;10.30;;;;;;;;;;5071200;28;20240;-69
2023/02/05 04:04:44;;;;;;;66.13;9.80;;;;;;;;;;5070922;28;20238;-68
2023/02/05 04:07:12;;;;;;;67.82;10.88;;;;;;;;;;5071238;28;20228;-68
2023/02/05 04:09:40;;;;;;;65.50;10.60;;;;;;;;;;5071823;28;20208;-69
2023/02/05 04:12:07;;;;;;;66.28;10.70;;;;;;;;;;5074685;28;20219;-68
2023/02/05 04:14:34;;;;;;;65.95;9.80;;;;;;;;;;5074690;28;20596;-69
2023/02/05 04:17:02;;;;;;;68.85;11.07;;;;;;;;;;5074587;28;20208;-68
2023/02/05 04:19:29;;;;;;;65.68;9.77;;;;;;;;;;5073961;28;20226;-68
2023/02/05 04:21:56;;;;;;;67.32;10.00;;;;;;;;;;5074456;28;20213;-68
2023/02/05 04:24:24;;;;;;;67.72;9.43;;;;;;;;;;5074338;28;20244;-69
2023/02/05 04:26:52;;;;;;;65.05;9.27;;;;;;;;;;5074339;28;20303;-69
2023/02/05 04:29:19;;;;;;;67.18;9.40;;;;;;;;;;5074050;28;20197;-68
2023/02/05 04:31:46;;;;;;;64.03;9.25;;;;;;;;;;5074251;28;20213;-68
2023/02/05 04:34:13;;;;;;;67.65;9.77;;;;;;;;;;5074482;28;20232;-69
2023/02/05 04:36:40;;;;;;;67.53;10.13;;;;;;;;;;5074381;28;20225;-68
2023/02/05 04:39:08;;;;;;;65.28;10.27;;;;;;;;;;5073860;28;20623;-68
2023/02/05 04:41:35;;;;;;;64.28;9.48;;;;;;;;;;5074450;28;20579;-69
2023/02/05 04:44:04;;;;;;;67.38;9.73;;;;;;;;;;5074081;28;20227;-68
2023/02/05 04:46:31;;;;;;;64.47;9.55;;;;;;;;;;5074036;28;20283;-69
2023/02/05 04:48:58;;;;;;;65.65;10.10;;;;;;;;;;5073906;28;20589;-68
2023/02/05 04:51:26;;;;;;;64.15;8.70;;;;;;;;;;5074167;28;20208;-69
2023/02/05 04:53:53;;;;;;;66.30;10.80;;;;;;;;;;5073843;28;20246;-68
2023/02/05 04:56:20;;;;;;;65.15;9.68;;;;;;;;;;5073939;28;20577;-68
2023/02/05 04:58:47;;;;;;;68.38;10.15;;;;;;;;;;5073446;28;20235;-68
2023/02/05 05:01:17;;;;;;;65.85;9.73;;;;;;;;;;5073796;28;20695;-69
2023/02/05 05:03:45;;;;;;;66.80;10.18;;;;;;;;;;5073909;28;20238;-68
2023/02/05 05:06:12;;;;;;;63.55;9.02;;;;;;;;;;5073866;28;20587;-68
2023/02/05 05:08:39;;;;;;;67.70;10.30;;;;;;;;;;5073413;28;20667;-67
2023/02/05 05:11:07;;;;;;;65.55;10.70;;;;;;;;;;5073566;28;20212;-68
2023/02/05 05:13:34;;;;;;;66.38;10.30;;;;;;;;;;5073442;28;20317;-67
2023/02/05 05:16:01;;;;;;;67.93;11.05;;;;;;;;;;5073718;28;20204;-68
2023/02/05 05:18:30;;;;;;;66.72;10.40;;;;;;;;;;5073346;28;20224;-67
2023/02/05 05:20:57;;;;;;;65.97;9.25;;;;;;;;;;5072523;28;20223;-66
2023/02/05 05:23:24;;;;;;;66.32;9.65;;;;;;;;;;5072765;28;20225;-67
2023/02/05 05:25:51;;;;;;;65.78;9.75;;;;;;;;;;5073217;28;20213;-67
2023/02/05 05:28:19;;;;;;;64.45;10.52;;;;;;;;;;5073552;28;20213;-68
2023/02/05 05:30:46;;;;;;;64.70;10.07;;;;;;;;;;5073179;28;20204;-69
2023/02/05 05:33:13;;;;;;;65.57;10.23;;;;;;;;;;5073202;28;20577;-67
2023/02/05 05:35:42;;;;;;;65.28;10.50;;;;;;;;;;5073226;28;20212;-69
2023/02/05 05:38:09;;;;;;;67.03;10.52;;;;;;;;;;5073009;28;20207;-69
2023/02/05 05:46:07;;;;;;;66.90;10.65;;;;;;;;;;5073015;28;20196;-68
2023/02/05 05:48:34;;;;;;;69.45;9.85;;;;;;;;;;5072674;28;20205;-68
2023/02/05 05:51:03;;;;;;;70.70;10.75;;;;;;;;;;5072803;28;20211;-68
2023/02/05 05:53:30;;;;;;;68.15;10.13;;;;;;;;;;5072670;28;20474;-69
2023/02/05 05:55:57;;;;;;;64.05;8.90;;;;;;;;;;5072787;28;20586;-69
2023/02/05 05:58:24;;;;;;;66.95;10.10;;;;;;;;;;5072685;28;20204;-69
2023/02/05 06:00:51;;;;;;;66.00;10.60;;;;;;;;;;5072466;28;20703;-68
2023/02/05 06:03:20;;;;;;;64.68;9.85;;;;;;;;;;5072548;28;20229;-67
2023/02/05 06:05:48;;;;;;;64.82;9.07;;;;;;;;;;5072795;28;20585;-68
2023/02/05 06:08:16;;;;;;;68.15;10.30;;;;;;;;;;5072610;28;20208;-68
2023/02/05 06:10:43;;;;;;;64.93;9.43;;;;;;;;;;5072392;28;20204;-69
2023/02/05 06:13:11;;;;;;;68.05;9.27;;;;;;;;;;5072461;28;20535;-68
2023/02/05 06:15:38;;;;;;;64.10;9.20;;;;;;;;;;5072422;28;20205;-68
2023/02/05 06:18:05;;;;;;;66.20;9.88;;;;;;;;;;5072151;28;20209;-68
2023/02/05 06:20:32;;;;;;;65.60;10.20;;;;;;;;;;5072167;28;20233;-68
2023/02/05 06:22:59;;;;;;;67.28;10.27;;;;;;;;;;5072318;28;20208;-68
2023/02/05 06:25:28;;;;;;;64.85;10.18;;;;;;;;;;5072133;28;20227;-68
2023/02/05 06:27:55;;;;;;;65.25;9.70;;;;;;;;;;5072263;28;20212;-68
2023/02/05 06:30:22;;;;;;;68.03;10.77;;;;;;;;;;5071830;28;20200;-68
2023/02/05 06:32:49;;;;;;;64.32;10.00;;;;;;;;;;5071921;28;20589;-69
2023/02/05 06:35:16;;;;;;;66.78;9.70;;;;;;;;;;5072122;28;20227;-69
2023/02/05 06:37:43;;;;;;;65.78;9.95;;;;;;;;;;5072133;28;20213;-68
2023/02/05 06:40:11;;;;;;;66.05;9.25;;;;;;;;;;5071507;28;20223;-68
2023/02/05 06:42:40;;;;;;;67.03;10.23;;;;;;;;;;5071803;28;20254;-68
2023/02/05 06:45:08;;;;;;;67.70;10.75;;;;;;;;;;5071733;28;20773;-68
2023/02/05 06:47:35;;;;;;;66.35;10.43;;;;;;;;;;5071842;28;20308;-67
2023/02/05 06:50:03;;;;;;;70.55;9.95;;;;;;;;;;5071668;28;20207;-68
2023/02/05 06:52:30;;;;;;;67.35;10.35;;;;;;;;;;5051866;28;20201;-67
2023/02/05 06:54:57;;;;;;;68.30;10.63;;;;;;;;;;5051467;28;20224;-69
2023/02/05 06:57:24;;;;;;;66.00;10.13;;;;;;;;;;5051603;28;20223;-68
2023/02/05 06:59:53;;;;;;;66.43;10.48;;;;;;;;;;5051352;28;20229;-68
2023/02/05 07:02:20;;;;;;;67.07;9.60;;;;;;;;;;5051842;28;20213;-68
2023/02/05 07:04:47;;;;;;;66.88;10.05;;;;;;;;;;5051718;28;20232;-68
2023/02/05 07:07:16;;;;;;;63.35;8.77;;;;;;;;;;5051771;28;20209;-68
2023/02/05 07:09:43;;;;;;;64.82;10.13;;;;;;;;;;5051326;28;20206;-69
2023/02/05 07:12:10;;;;;;;66.40;9.82;;;;;;;;;;5051488;28;20688;-68
2023/02/05 07:14:37;;;;;;;65.30;9.43;;;;;;;;;;5051934;28;20236;-68
2023/02/05 07:17:06;;;;;;;66.43;9.27;;;;;;;;;;5051657;28;20213;-68
2023/02/05 07:19:33;;;;;;;66.53;10.45;;;;;;;;;;5051144;28;20714;-68
2023/02/05 07:22:01;;;;;;;68.45;9.80;;;;;;;;;;5051522;28;20201;-68
2023/02/05 07:24:28;;;;;;;66.85;10.02;;;;;;;;;;5051263;28;20243;-68
2023/02/05 07:26:55;;;;;;;63.65;10.32;;;;;;;;;;5051491;28;20219;-68
2023/02/05 07:29:22;;;;;;;66.22;9.35;;;;;;;;;;5051406;28;20211;-69
2023/02/05 07:31:49;;;;;;;66.95;9.80;;;;;;;;;;5051592;28;20591;-68
2023/02/05 07:34:18;;;;;;;64.65;10.15;;;;;;;;;;5051457;28;20225;-69
2023/02/05 07:36:45;;;;;;;68.97;9.13;;;;;;;;;;5051392;28;20205;-67
2023/02/05 07:39:12;;;;;;;64.57;9.50;;;;;;;;;;5050851;28;20226;-68
2023/02/05 07:41:39;;;;;;;68.93;10.23;;;;;;;;;;5051457;28;20247;-67
2023/02/05 07:44:06;;;;;;;66.22;9.07;;;;;;;;;;5051479;28;20232;-68
2023/02/05 07:46:33;;;;;;;64.53;8.88;;;;;;;;;;5055320;28;20213;-68
2023/02/05 07:49:00;;;;;;;68.32;9.68;;;;;;;;;;5054952;28;20226;-68
2023/02/05 07:51:29;;;;;;;65.88;10.02;;;;;;;;;;5055047;28;20205;-68
2023/02/05 07:53:56;;;;;;;64.80;9.70;;;;;;;;;;5054869;28;20236;-68
2023/02/05 07:56:24;;;;;;;68.43;11.35;;;;;;;;;;5055252;28;20614;-68
2023/02/05 07:58:51;;;;;;;65.70;10.13;;;;;;;;;;5054844;28;20208;-68
2023/02/05 08:01:19;;;;;;;65.95;9.80;;;;;;;;;;5055364;28;20238;-68
2023/02/05 08:03:46;;;;;;;65.50;10.52;;;;;;;;;;5054843;28;20604;-67
2023/02/05 08:06:15;;;;;;;65.32;9.95;;;;;;;;;;5054854;28;20208;-68
2023/02/05 08:08:44;;;;;;;69.85;11.40;;;;;;;;;;5054387;28;20571;-68
2023/02/05 08:11:13;;;;;;;69.70;10.98;;;;;;;;;;5054741;28;20576;-68
2023/02/05 08:13:40;;;;;;;65.28;9.90;;;;;;;;;;5053579;28;20230;-69
2023/02/05 08:16:08;;;;;;;65.95;10.63;;;;;;;;;;5054749;28;20206;-69
2023/02/05 08:18:35;;;;;;;66.43;10.77;;;;;;;;;;5054210;28;20219;-69
2023/02/05 08:21:02;;;;;;;69.20;10.82;;;;;;;;;;5054308;28;20228;-69
2023/02/05 08:23:29;;;;;;;69.55;10.80;;;;;;;;;;5054449;28;20237;-69
2023/02/05 08:25:59;;;;;;;68.05;10.90;;;;;;;;;;5054636;28;20213;-69
2023/02/05 08:28:27;;;;;;;68.30;10.30;;;;;;;;;;5054369;28;20236;-69
2023/02/05 08:30:55;;;;;;;67.22;10.40;;;;;;;;;;5054089;28;20681;-69
2023/02/05 08:33:22;;;;;;;68.53;12.02;;;;;;;;;;5054156;28;20321;-69
2023/02/05 08:35:49;;;;;;;72.25;11.45;;;;;;;;;;5054503;28;20202;-69
2023/02/05 08:38:16;;;;;;;70.53;10.32;;;;;;;;;;5054104;28;20217;-69
2023/02/05 08:40:43;;;;;;;68.32;11.15;;;;;;;;;;5053751;28;20725;-68
2023/02/05 08:43:12;;;;;;;68.30;10.70;;;;;;;;;;5053997;28;20212;-68
2023/02/05 08:45:39;;;;;;;69.00;11.32;;;;;;;;;;5054179;28;20301;-69
2023/02/05 08:48:06;;;;;;;68.60;10.85;;;;;;;;;;5053904;28;20213;-69
2023/02/05 08:50:33;;;;;;;65.78;10.63;;;;;;;;;;5053913;28;20205;-69
2023/02/05 08:53:01;;;;;;;70.30;11.75;;;;;;;;;;5053962;28;20278;-68
2023/02/05 08:55:28;;;;;;;68.45;11.68;;;;;;;;;;5054127;28;20209;-68
2023/02/05 08:57:55;;;;;;;70.38;12.38;;;;;;;;;;5053791;28;20538;-67
2023/02/05 09:00:23;;;;;;;68.65;10.90;;;;;;;;;;5053392;28;20248;-69
2023/02/05 09:02:51;;;;;;;66.95;10.80;;;;;;;;;;5053952;28;20206;-69
2023/02/05 09:05:18;;;;;;;70.38;11.90;;;;;;;;;;5053613;28;20236;-68
2023/02/05 09:07:45;;;;;;;67.95;11.52;;;;;;;;;;5053840;28;20206;-69
2023/02/05 09:10:13;;;;;;;69.78;11.23;;;;;;;;;;5053393;28;20202;-69
2023/02/05 09:12:41;;;;;;;70.43;12.05;;;;;;;;;;5053449;28;20210;-68
2023/02/05 09:15:08;;;;;;;69.70;11.07;;;;;;;;;;5053294;28;20221;-67
2023/02/05 09:17:37;;;;;;;68.82;10.98;;;;;;;;;;5053732;28;20201;-68
2023/02/05 09:20:04;;;;;;;68.70;11.88;;;;;;;;;;5053163;28;20222;-66
2023/02/05 09:22:31;;;;;;;68.75;11.48;;;;;;;;;;5053473;28;20233;-68
2023/02/05 09:24:58;;;;;;;70.85;11.73;;;;;;;;;;5053195;28;20234;-68
2023/02/05 09:27:25;;;;;;;71.20;11.32;;;;;;;;;;5053198;28;20216;-68
2023/02/05 09:29:53;;;;;;;69.22;11.52;;;;;;;;;;5052826;28;20202;-67
2023/02/05 09:32:20;;;;;;;71.13;12.70;;;;;;;;;;5053110;28;20235;-67
2023/02/05 09:34:48;;;;;;;67.25;10.82;;;;;;;;;;5053220;28;20226;-70
2023/02/05 09:37:15;;;;;;;70.85;11.48;;;;;;;;;;5053192;28;20291;-69
2023/02/05 09:39:42;;;;;;;69.38;11.23;;;;;;;;;;5052608;28;20210;-69
2023/02/05 09:42:15;;;;;;;71.05;13.10;;;;;;;;;;5052987;28;20206;-69
2023/02/05 09:44:57;;;;;;;68.20;11.68;;;;;;;;;;5053244;28;20230;-69
2023/02/05 09:47:28;;;;;;;68.13;11.63;;;;;;;;;;5053050;28;20212;-69
2023/02/05 09:50:03;;;;;;;68.30;11.05;;;;;;;;;;5052635;28;20212;-69
2023/02/05 09:52:33;;;;;;;68.32;11.07;;;;;;;;;;5052863;28;20212;-70
2023/02/05 09:55:02;;;;;;;72.38;11.85;;;;;;;;;;5052782;28;20232;-68
2023/02/05 09:57:33;;;;;;;68.20;12.07;;;;;;;;;;5052945;28;20240;-70
2023/02/05 10:00:01;;;;;;;70.72;12.35;;;;;;;;;;5052593;28;20714;-69
2023/02/05 10:02:30;;;;;;;67.60;11.77;;;;;;;;;;5052865;28;20225;-69
2023/02/05 10:04:58;;;;;;;68.20;11.80;;;;;;;;;;5052530;28;20593;-68
2023/02/05 10:07:29;;;;;;;71.43;12.38;;;;;;;;;;5052573;28;20573;-69
2023/02/05 10:10:15;;;;;;;72.82;15.20;;;;;;;;;;5052365;28;20206;-69
2023/02/05 10:12:48;;;;;;;70.00;13.40;;;;;;;;;;5052575;28;20217;-68
2023/02/05 10:15:24;;;;;;;72.22;14.40;;;;;;;;;;5052415;28;20229;-67
2023/02/05 10:17:56;;;;;;;72.22;13.82;;;;;;;;;;5052558;28;20214;-67
2023/02/05 10:20:30;;;;;;;75.40;14.50;;;;;;;;;;5052061;28;20230;-67
2023/02/05 10:23:07;;;;;;;71.05;13.60;;;;;;;;;;5052318;28;20237;-67
2023/02/05 10:25:46;;;;;;;75.97;13.23;;;;;;;;;;5052260;28;20206;-68
2023/02/05 10:28:21;;;;;;;72.25;13.43;;;;;;;;;;5052339;28;20237;-68
2023/02/05 10:30:51;;;;;;;76.03;13.57;;;;;;;;;;5052084;28;20205;-68
2023/02/05 10:33:20;;;;;;;70.53;13.57;;;;;;;;;;5052071;28;20237;-68
2023/02/05 10:35:51;;;;;;;70.53;14.32;;;;;;;;;;5052026;28;20694;-68
2023/02/05 10:38:22;;;;;;;68.25;12.25;;;;;;;;;;5051801;28;20212;-67
2023/02/05 10:40:51;;;;;;;72.90;14.23;;;;;;;;;;5051930;28;20595;-68
2023/02/05 10:43:23;;;;;;;75.22;15.50;;;;;;;;;;5051904;28;20713;-68
2023/02/05 10:45:52;;;;;;;72.22;14.82;;;;;;;;;;5051892;28;20248;-67
2023/02/05 10:48:29;;;;;;;74.30;13.70;;;;;;;;;;5051688;28;20211;-67
2023/02/05 10:50:59;;;;;;;75.05;15.45;;;;;;;;;;5051694;28;20553;-68
2023/02/05 10:53:27;;;;;;;72.20;13.82;;;;;;;;;;5051906;28;20239;-68
2023/02/05 10:55:54;;;;;;;74.35;14.45;;;;;;;;;;5051760;28;20658;-68
2023/02/05 10:58:37;;;;;;;71.88;14.60;;;;;;;;;;5051530;28;20210;-68
2023/02/05 11:01:05;;;;;;;82.60;16.08;;;;;;;;;;5051770;28;20279;-68
2023/02/05 11:03:33;;;;;;;74.70;14.75;;;;;;;;;;5051477;28;20225;-67
2023/02/05 11:06:01;;;;;;;76.93;15.13;;;;;;;;;;5051640;28;20674;-66
2023/02/05 11:08:32;;;;;;;72.90;14.43;;;;;;;;;;5051595;28;20206;-65
2023/02/05 11:10:59;;;;;;;78.22;15.07;;;;;;;;;;5051480;28;20289;-67
2023/02/05 11:13:28;;;;;;;78.35;14.82;;;;;;;;;;5051541;28;20226;-67
2023/02/05 11:15:57;;;;;;;77.50;15.68;;;;;;;;;;5051219;28;20701;-67
2023/02/05 11:18:25;;;;;;;74.45;14.48;;;;;;;;;;5051476;28;20577;-68
2023/02/05 11:20:56;;;;;;;75.53;14.32;;;;;;;;;;5054364;28;20232;-68
2023/02/05 11:23:26;;;;;;;73.85;14.73;;;;;;;;;;5055604;28;20240;-66
2023/02/05 11:25:54;;;;;;;78.70;15.90;;;;;;;;;;5055733;28;20233;-67
2023/02/05 11:28:23;;;;;;;77.97;15.13;;;;;;;;;;5055350;28;20708;-68
2023/02/05 11:30:50;;;;;;;77.15;14.73;;;;;;;;;;5055268;28;20202;-68
2023/02/05 11:33:19;;;;;;;71.65;13.55;;;;;;;;;;5055442;28;20232;-67
2023/02/05 11:35:52;;;;;;;75.90;14.18;;;;;;;;;;5055836;28;20206;-67
2023/02/05 11:38:22;;;;;;;79.57;14.25;;;;;;;;;;5055402;28;20213;-68
2023/02/05 11:40:53;;;;;;;84.25;15.90;;;;;;;;;;5055093;28;20232;-66
2023/02/05 11:43:23;;;;;;;76.72;15.20;;;;;;;;;;5055166;28;20714;-67
2023/02/05 11:45:52;;;;;;;75.60;14.32;;;;;;;;;;5055350;28;20215;-67
2023/02/05 11:48:26;;;;;;;75.78;14.60;;;;;;;;;;5054980;28;20213;-66
2023/02/05 11:50:53;;;;;;;73.93;14.75;;;;;;;;;;5055086;28;20212;-67
2023/02/05 11:53:21;;;;;;;74.35;14.73;;;;;;;;;;5055372;28;20230;-67
2023/02/05 11:55:54;;;;;;;74.85;13.10;;;;;;;;;;5055245;28;20580;-66
2023/02/05 11:58:24;;;;;;;74.60;13.95;;;;;;;;;;5055093;28;20206;-67
2023/02/05 12:00:52;;;;;;;71.03;12.68;;;;;;;;;;5054715;28;20222;-68
2023/02/05 12:03:20;;;;;;;77.05;16.55;;;;;;;;;;5054850;28;20226;-67
2023/02/05 12:05:51;;;;;;;74.05;13.30;;;;;;;;;;5054951;28;20212;-68
2023/02/05 12:08:23;;;;;;;76.00;15.65;;;;;;;;;;5054942;28;20212;-66
2023/02/05 12:10:56;;;;;;;74.88;14.45;;;;;;;;;;5054836;28;20208;-67
2023/02/05 12:13:27;;;;;;;73.88;13.65;;;;;;;;;;5054810;28;20233;-68
2023/02/05 12:15:59;;;;;;;73.60;14.00;;;;;;;;;;5054770;28;20221;-68
2023/02/05 12:18:32;;;;;;;72.65;14.43;;;;;;;;;;5054548;28;20210;-67
2023/02/05 12:21:05;;;;;;;76.55;14.25;;;;;;;;;;5054918;28;20233;-68
2023/02/05 12:23:41;;;;;;;68.90;12.80;;;;;;;;;;5054561;28;20233;-66
2023/02/05 12:26:21;;;;;;;74.30;12.50;;;;;;;;;;5054562;28;20443;-68
2023/02/05 12:28:54;;;;;;;74.53;14.70;;;;;;;;;;5054102;28;20210;-68
2023/02/05 12:31:25;;;;;;;75.90;13.53;;;;;;;;;;5054107;28;20441;-67
2023/02/05 12:34:01;;;;;;;76.57;14.27;;;;;;;;;;5054569;28;20490;-69
2023/02/05 12:36:35;;;;;;;75.80;14.07;;;;;;;;;;5054412;28;20228;-68
2023/02/05 12:39:09;;;;;;;72.00;13.43;;;;;;;;;;5054005;28;20210;-67
2023/02/05 12:41:39;;;;;;;73.47;12.57;;;;;;;;;;5054377;28;20240;-68
2023/02/05 12:44:14;;;;;;;72.60;12.32;;;;;;;;;;5054392;28;20229;-68
2023/02/05 12:46:49;;;;;;;73.07;14.13;;;;;;;;;;5054315;28;20205;-67
2023/02/05 12:49:22;;;;;;;72.78;13.35;;;;;;;;;;5053964;28;20205;-68
2023/02/05 12:51:54;;;;;;;71.50;14.07;;;;;;;;;;5054058;28;20206;-67
2023/02/05 12:54:35;;;;;;;71.75;12.80;;;;;;;;;;5054298;28;20482;-67
2023/02/05 12:57:05;;;;;;;76.75;13.10;;;;;;;;;;5054248;28;20213;-68
2023/02/05 12:59:39;;;;;;;70.78;12.27;;;;;;;;;;5053782;28;20212;-68
2023/02/05 13:02:11;;;;;;;70.45;11.38;;;;;;;;;;5053965;28;20225;-67
2023/02/05 13:04:40;;;;;;;72.53;12.40;;;;;;;;;;5053974;28;20316;-67
2023/02/05 13:07:11;;;;;;;72.30;10.53;;;;;;;;;;5053937;28;20202;-68
2023/02/05 13:09:44;;;;;;;73.88;12.07;;;;;;;;;;5053493;28;20459;-68
2023/02/05 13:12:12;;;;;;;69.13;11.30;;;;;;;;;;5053599;28;20202;-68
2023/02/05 13:14:42;;;;;;;71.88;12.00;;;;;;;;;;5053405;28;20248;-68
2023/02/05 13:17:14;;;;;;;70.15;11.52;;;;;;;;;;5053581;28;20213;-68
2023/02/05 13:19:43;;;;;;;68.78;11.90;;;;;;;;;;5053320;28;20216;-67
2023/02/05 13:30:36;;;;;;;73.55;12.70;;;;;;;;;;5053145;28;20250;-67
2023/02/05 13:33:05;;;;;;;69.65;12.75;;;;;;;;;;5053213;28;20233;-68
2023/02/05 13:35:34;;;;;;;71.50;12.98;;;;;;;;;;5053781;28;20228;-68
2023/02/05 13:38:12;;;;;;;70.63;13.23;;;;;;;;;;5052985;28;20302;-68
2023/02/05 13:41:06;;;;;;;71.10;12.50;;;;;;;;;;5052949;28;20586;-67
2023/02/05 13:43:49;;;;;;;72.07;12.48;;;;;;;;;;5016562;28;20230;-68
2023/02/05 13:46:31;;;;;;;71.07;12.45;;;;;;;;;;5053210;28;20206;-68
2023/02/05 13:49:09;;;;;;;70.00;12.43;;;;;;;;;;5040183;28;20662;-68
2023/02/05 13:51:41;;;;;;;67.87;12.63;;;;;;;;;;5052924;28;20287;-68
2023/02/05 13:54:19;;;;;;;71.97;13.80;;;;;;;;;;5052868;28;20471;-69
2023/02/05 13:56:49;;;;;;;69.18;12.90;;;;;;;;;;5052975;28;20209;-68
2023/02/05 13:59:18;;;;;;;69.38;12.88;;;;;;;;;;5052307;28;20209;-68
2023/02/05 14:01:49;;;;;;;77.80;14.03;;;;;;;;;;5052556;28;20698;-68
2023/02/05 14:04:21;;;;;;;70.70;12.35;;;;;;;;;;5052692;28;20846;-68
2023/02/05 14:06:55;;;;;;;76.05;15.50;;;;;;;;;;5052554;28;20217;-68
2023/02/05 14:09:23;;;;;;;68.72;12.80;;;;;;;;;;5052368;28;20586;-68
2023/02/05 14:11:54;;;;;;;93.85;24.45;;;;;;;;;;5052546;28;20285;-68
2023/02/05 14:14:33;;;;;;;73.82;16.67;;;;;;;;;;5052280;28;20730;-68
2023/02/05 14:17:01;;;;;;;71.80;14.70;;;;;;;;;;5052318;28;20670;-68
2023/02/05 14:19:43;;;;;;;69.80;13.65;;;;;;;;;;5051917;28;20206;-67
2023/02/05 14:22:13;;;;;;;70.70;12.80;;;;;;;;;;5051986;28;20237;-68
2023/02/05 14:24:45;;;;;;;73.07;14.20;;;;;;;;;;5052039;28;20249;-67
2023/02/05 14:27:45;;;;;;;71.45;14.13;;;;;;;;;;5052121;28;20701;-67
2023/02/05 14:30:32;;;;;;;66.20;9.75;;;;;;;;;;5051919;28;20289;-67
2023/02/05 14:33:01;;;;;;;65.03;7.90;;;;;;;;;;5052051;28;20240;-68
2023/02/05 14:35:30;;;;;;;63.20;7.05;;;;;;;;;;5052154;28;20206;-68
2023/02/05 14:38:01;;;;;;;60.95;6.20;;;;;;;;;;5051919;28;20419;-68
2023/02/05 14:40:29;;;;;;;62.55;6.22;;;;;;;;;;5051919;28;20212;-68
2023/02/05 14:42:57;;;;;;;61.95;6.63;;;;;;;;;;5051980;28;20230;-68
2023/02/05 14:45:26;;;;;;;61.63;6.15;;;;;;;;;;5051982;28;20212;-68